Time;durP1;ratioP1;P1;durP2;ratioP2;P2;SDS_P1;SDS_P2;PMS_P1;PMS_P2;Temp;Humidity;BMP_temperature;BMP_pressure;BME280_temperature;BME280_humidity;BME280_pressure;Samples;Min_cycle;Max_cycle;Signal;HPM_P1;HPM_P2
2024/01/08 00:00:21;;;;;;;;;;;18.70;64.20;;;;;;5044738;28;44212;-82
2024/01/08 00:02:46;;;;;;;;;;;18.70;64.30;;;;;;5047719;28;42996;-80
2024/01/08 00:05:12;;;;;;;;;;;18.70;64.20;;;;;;5056561;28;43459;-80
2024/01/08 00:07:38;;;;;;;;;;;18.70;64.10;;;;;;5055942;28;43234;-81
2024/01/08 00:10:04;;;;;;;;;;;18.70;63.60;;;;;;5062877;28;43867;-81
2024/01/08 00:12:29;;;;;;;;;;;18.70;64.30;;;;;;5063239;28;43211;-80
2024/01/08 00:14:55;;;;;;;;;;;18.70;63.70;;;;;;5054806;28;43624;-80
2024/01/08 00:17:21;;;;;;;;;;;18.70;63.50;;;;;;5040595;28;43048;-82
2024/01/08 00:19:46;;;;;;;;;;;18.80;64.50;;;;;;5055489;28;43071;-81
2024/01/08 00:22:12;;;;;;;;;;;18.70;64.50;;;;;;5064416;28;43058;-80
2024/01/08 00:24:37;;;;;;;;;;;18.70;64.40;;;;;;5055885;28;43663;-83
2024/01/08 00:27:03;;;;;;;;;;;18.70;63.90;;;;;;5064233;28;43253;-81
2024/01/08 00:29:28;;;;;;;;;;;18.70;63.80;;;;;;5041114;28;44519;-83
2024/01/08 00:31:54;;;;;;;;;;;18.70;64.60;;;;;;5039314;28;43196;-83
2024/01/08 00:34:20;;;;;;;;;;;18.70;64.60;;;;;;5052127;28;43148;-80
2024/01/08 00:36:46;;;;;;;;;;;18.80;64.60;;;;;;5046318;28;42959;-80
2024/01/08 00:39:11;;;;;;;;;;;18.70;64.60;;;;;;5047780;28;43596;-78
2024/01/08 00:41:37;;;;;;;;;;;18.70;64.50;;;;;;5045690;28;43001;-81
2024/01/08 00:44:03;;;;;;;;;;;18.70;64.50;;;;;;5053152;28;42837;-79
2024/01/08 00:46:29;;;;;;;;;;;18.70;64.60;;;;;;5045332;28;43184;-80
2024/01/08 00:48:54;;;;;;;;;;;18.70;64.60;;;;;;5047427;28;43500;-83
2024/01/08 00:51:20;;;;;;;;;;;18.70;64.60;;;;;;5041132;28;43266;-78
2024/01/08 00:53:45;;;;;;;;;;;18.70;64.00;;;;;;5042830;28;43459;-78
2024/01/08 00:56:13;;;;;;;;;;;18.70;64.10;;;;;;5042209;28;42980;-78
2024/01/08 00:58:41;;;;;;;;;;;18.70;64.70;;;;;;5050252;28;42968;-82
2024/01/08 01:01:07;;;;;;;;;;;18.70;65.00;;;;;;5030182;28;42947;-79
2024/01/08 01:03:33;;;;;;;;;;;18.70;64.20;;;;;;5044803;28;43091;-80
2024/01/08 01:05:58;;;;;;;;;;;18.70;64.30;;;;;;5049574;28;43857;-79
2024/01/08 01:08:24;;;;;;;;;;;18.70;64.90;;;;;;5045279;28;43017;-80
2024/01/08 01:10:49;;;;;;;;;;;18.70;64.80;;;;;;5029823;28;42995;-79
2024/01/08 01:13:15;;;;;;;;;;;18.70;64.30;;;;;;5045593;28;44101;-81
2024/01/08 01:15:41;;;;;;;;;;;18.70;64.40;;;;;;5045406;28;42963;-83
2024/01/08 01:18:06;;;;;;;;;;;18.70;64.90;;;;;;5044110;28;43022;-80
2024/01/08 01:20:32;;;;;;;;;;;18.70;65.10;;;;;;5041194;28;44083;-78
2024/01/08 01:22:57;;;;;;;;;;;18.70;65.10;;;;;;5031964;28;43462;-78
2024/01/08 01:25:23;;;;;;;;;;;18.70;65.20;;;;;;5048950;28;42829;-79
2024/01/08 01:27:49;;;;;;;;;;;18.70;65.20;;;;;;5057961;28;42979;-79
2024/01/08 01:30:15;;;;;;;;;;;18.70;65.40;;;;;;5063518;28;43044;-78
2024/01/08 01:32:40;;;;;;;;;;;18.70;65.40;;;;;;5066841;28;43035;-77
2024/01/08 01:35:06;;;;;;;;;;;18.70;65.20;;;;;;5067218;28;43042;-79
2024/01/08 01:37:31;;;;;;;;;;;18.70;65.20;;;;;;5067356;28;42956;-78
2024/01/08 01:39:57;;;;;;;;;;;18.70;65.20;;;;;;5066124;28;43123;-78
2024/01/08 01:42:22;;;;;;;;;;;18.70;65.60;;;;;;5065440;28;42979;-80
2024/01/08 01:44:48;;;;;;;;;;;18.70;65.80;;;;;;5066573;28;42871;-79
2024/01/08 01:47:14;;;;;;;;;;;18.70;65.90;;;;;;5066608;28;42941;-80
2024/01/08 01:49:40;;;;;;;;;;;18.70;65.30;;;;;;5066929;28;42946;-78
2024/01/08 01:52:06;;;;;;;;;;;18.70;66.10;;;;;;5065931;28;43071;-79
2024/01/08 01:54:31;;;;;;;;;;;18.80;66.10;;;;;;5062786;28;43133;-78
2024/01/08 01:56:59;;;;;;;;;;;18.70;66.30;;;;;;5067111;28;43086;-78
2024/01/08 01:59:26;;;;;;;;;;;18.70;66.50;;;;;;5049668;28;43155;-79
2024/01/08 02:01:52;;;;;;;;;;;18.70;66.30;;;;;;5065857;28;43460;-78
2024/01/08 02:04:18;;;;;;;;;;;18.70;66.40;;;;;;5065073;28;42970;-78
2024/01/08 02:06:44;;;;;;;;;;;18.70;66.10;;;;;;5065798;28;42983;-79
2024/01/08 02:09:10;;;;;;;;;;;18.70;66.30;;;;;;5066599;28;43262;-79
2024/01/08 02:11:35;;;;;;;;;;;18.70;66.10;;;;;;5066668;28;44125;-79
2024/01/08 02:14:01;;;;;;;;;;;18.70;66.60;;;;;;5066784;28;42859;-79
2024/01/08 02:16:26;;;;;;;;;;;18.70;66.70;;;;;;5067269;28;42827;-78
2024/01/08 02:18:52;;;;;;;;;;;18.70;66.80;;;;;;5066921;28;42966;-78
2024/01/08 02:21:18;;;;;;;;;;;18.70;66.70;;;;;;5060266;28;43377;-81
2024/01/08 02:23:43;;;;;;;;;;;18.70;66.20;;;;;;5060639;28;42914;-81
2024/01/08 02:26:09;;;;;;;;;;;18.70;66.80;;;;;;5066579;28;43580;-81
2024/01/08 02:28:35;;;;;;;;;;;18.70;66.20;;;;;;5066263;28;43024;-80
2024/01/08 02:31:00;;;;;;;;;;;18.70;67.50;;;;;;5047658;28;43029;-77
2024/01/08 02:33:26;;;;;;;;;;;18.70;66.90;;;;;;5048855;28;43139;-78
2024/01/08 02:35:51;;;;;;;;;;;18.70;67.20;;;;;;5053272;28;42957;-78
2024/01/08 02:38:17;;;;;;;;;;;18.70;67.30;;;;;;5063946;28;43013;-80
2024/01/08 02:40:43;;;;;;;;;;;18.70;67.40;;;;;;5055659;28;43042;-79
2024/01/08 02:43:08;;;;;;;;;;;18.70;67.40;;;;;;5064492;28;42989;-81
2024/01/08 02:45:34;;;;;;;;;;;18.70;67.70;;;;;;5064051;28;43476;-79
2024/01/08 02:47:59;;;;;;;;;;;18.70;66.80;;;;;;5054004;28;43156;-80
2024/01/08 02:50:25;;;;;;;;;;;18.70;66.90;;;;;;5064791;28;43376;-81
2024/01/08 02:52:50;;;;;;;;;;;18.70;66.90;;;;;;5065830;28;42890;-80
2024/01/08 02:55:16;;;;;;;;;;;18.70;67.70;;;;;;5065337;28;43922;-80
2024/01/08 02:57:41;;;;;;;;;;;18.70;67.60;;;;;;5065963;28;42949;-80
2024/01/08 03:00:08;;;;;;;;;;;18.70;67.80;;;;;;5065604;28;43685;-84
2024/01/08 03:02:33;;;;;;;;;;;18.70;67.20;;;;;;5044791;28;42997;-80
2024/01/08 03:04:59;;;;;;;;;;;18.70;67.50;;;;;;5040868;28;43266;-78
2024/01/08 03:07:25;;;;;;;;;;;18.70;67.50;;;;;;5058462;28;43066;-81
2024/01/08 03:09:50;;;;;;;;;;;18.80;68.40;;;;;;5058116;28;42974;-78
2024/01/08 03:12:16;;;;;;;;;;;18.70;68.10;;;;;;5065520;28;43575;-77
2024/01/08 03:14:42;;;;;;;;;;;18.70;68.20;;;;;;5053837;28;43408;-78
2024/01/08 03:17:08;;;;;;;;;;;18.70;68.30;;;;;;5063807;28;43034;-78
2024/01/08 03:19:33;;;;;;;;;;;18.70;67.70;;;;;;5065722;28;42747;-77
2024/01/08 03:21:59;;;;;;;;;;;18.70;67.80;;;;;;5065875;28;42969;-78
2024/01/08 03:24:25;;;;;;;;;;;18.70;68.30;;;;;;5066062;28;43474;-77
2024/01/08 03:26:50;;;;;;;;;;;18.70;68.30;;;;;;5065477;28;42957;-78
2024/01/08 03:29:16;;;;;;;;;;;18.70;68.50;;;;;;5079111;28;43649;-79
2024/01/08 03:31:42;;;;;;;;;;;18.70;68.80;;;;;;5084219;28;42880;-81
2024/01/08 03:34:07;;;;;;;;;;;19.30;68.90;;;;;;5085129;28;43115;-82
2024/01/08 03:36:33;;;;;;;;;;;18.70;68.80;;;;;;5083693;28;43097;-81
2024/01/08 03:38:59;;;;;;;;;;;18.70;68.90;;;;;;5066972;28;42948;-82
2024/01/08 03:41:25;;;;;;;;;;;18.70;68.90;;;;;;5064766;28;42990;-82
2024/01/08 03:43:50;;;;;;;;;;;18.70;68.90;;;;;;5074689;28;42958;-82
2024/01/08 03:46:16;;;;;;;;;;;18.60;69.00;;;;;;5083697;28;42989;-83
2024/01/08 03:48:42;;;;;;;;;;;18.70;68.90;;;;;;5066026;28;43672;-81
2024/01/08 03:51:07;;;;;;;;;;;18.70;68.40;;;;;;5082055;28;43023;-82
2024/01/08 03:53:33;;;;;;;;;;;18.60;69.00;;;;;;5085311;28;42966;-79
2024/01/08 03:55:58;;;;;;;;;;;18.60;69.10;;;;;;5071173;28;42958;-81
2024/01/08 03:58:24;;;;;;;;;;;18.70;69.10;;;;;;5074227;28;43466;-83
2024/01/08 04:00:51;;;;;;;;;;;18.60;69.10;;;;;;5067702;28;42962;-81
2024/01/08 04:03:17;;;;;;;;;;;18.60;68.80;;;;;;5084544;28;42863;-80
2024/01/08 04:05:42;;;;;;;;;;;18.70;69.10;;;;;;5084606;28;42824;-82
2024/01/08 04:08:08;;;;;;;;;;;18.60;69.10;;;;;;5084337;28;43404;-82
2024/01/08 04:10:33;;;;;;;;;;;18.60;68.50;;;;;;5084485;28;43009;-82
2024/01/08 04:12:59;;;;;;;;;;;18.60;68.60;;;;;;5084651;28;43632;-80
2024/01/08 04:15:24;;;;;;;;;;;18.60;69.10;;;;;;5082787;28;43006;-80
2024/01/08 04:17:50;;;;;;;;;;;18.70;69.20;;;;;;5083785;28;43006;-83
2024/01/08 04:20:16;;;;;;;;;;;18.60;68.30;;;;;;5083235;28;43094;-80
2024/01/08 04:22:44;;;;;;;;;;;18.60;68.30;;;;;;5084139;28;43804;-82
2024/01/08 04:25:09;;;;;;;;;;;18.70;69.10;;;;;;5070149;28;42930;-81
2024/01/08 04:27:35;;;;;;;;;;;18.70;69.10;;;;;;5055537;28;44418;-80
2024/01/08 04:30:01;;;;;;;;;;;18.70;69.10;;;;;;5064042;28;43080;-81
2024/01/08 04:32:26;;;;;;;;;;;18.70;69.10;;;;;;5063881;28;43015;-81
2024/01/08 04:34:52;;;;;;;;;;;18.70;69.00;;;;;;5063864;28;43063;-80
2024/01/08 04:37:17;;;;;;;;;;;18.70;69.00;;;;;;5063620;28;42982;-82
2024/01/08 04:39:43;;;;;;;;;;;18.60;68.00;;;;;;5050665;28;43018;-81
2024/01/08 04:42:08;;;;;;;;;;;18.70;68.80;;;;;;5056484;28;43169;-83
2024/01/08 04:44:34;;;;;;;;;;;18.70;69.00;;;;;;5062888;28;43133;-82
2024/01/08 04:46:59;;;;;;;;;;;18.70;69.20;;;;;;5059378;28;42964;-81
2024/01/08 04:49:25;;;;;;;;;;;18.60;68.50;;;;;;5063876;28;42945;-82
2024/01/08 04:51:50;;;;;;;;;;;18.60;68.80;;;;;;5064409;28;43635;-80
2024/01/08 04:54:16;;;;;;;;;;;18.60;69.00;;;;;;5059253;28;43101;-83
2024/01/08 04:56:42;;;;;;;;;;;18.60;69.20;;;;;;5060674;28;43550;-82
2024/01/08 04:59:08;;;;;;;;;;;18.60;69.10;;;;;;5062338;28;43175;-84
2024/01/08 05:01:37;;;;;;;;;;;18.60;68.40;;;;;;5063129;28;43969;-82
2024/01/08 05:04:03;;;;;;;;;;;18.60;69.10;;;;;;5055104;28;43110;-85
2024/01/08 05:06:29;;;;;;;;;;;18.60;69.00;;;;;;5062459;28;43227;-83
2024/01/08 05:08:54;;;;;;;;;;;18.60;69.10;;;;;;5063863;28;43059;-82
2024/01/08 05:11:20;;;;;;;;;;;18.60;68.60;;;;;;5063734;28;43723;-82
2024/01/08 05:13:45;;;;;;;;;;;18.50;69.10;;;;;;5063124;28;43042;-81
2024/01/08 05:16:11;;;;;;;;;;;18.60;69.10;;;;;;5062557;28;43720;-81
2024/01/08 05:18:36;;;;;;;;;;;18.60;69.20;;;;;;5063919;28;42967;-81
2024/01/08 05:21:05;;;;;;;;;;;18.60;69.30;;;;;;5064202;28;42886;-79
2024/01/08 05:23:30;;;;;;;;;;;18.60;69.00;;;;;;5064442;28;42958;-80
2024/01/08 05:25:59;;;;;;;;;;;18.60;68.60;;;;;;5065633;28;43509;-78
2024/01/08 05:28:28;;;;;;;;;;;18.60;69.10;;;;;;5060374;28;43210;-78
2024/01/08 05:30:53;;;;;;;;;;;18.60;69.10;;;;;;5056618;28;44815;-79
2024/01/08 05:33:20;;;;;;;;;;;18.60;69.10;;;;;;5057865;28;42991;-78
2024/01/08 05:35:46;;;;;;;;;;;18.60;69.20;;;;;;5058804;28;43414;-79
2024/01/08 05:38:12;;;;;;;;;;;18.60;68.50;;;;;;5059759;28;43555;-78
2024/01/08 05:40:37;;;;;;;;;;;18.60;69.10;;;;;;5053489;28;43112;-79
2024/01/08 05:43:03;;;;;;;;;;;18.60;69.20;;;;;;5057999;28;43006;-79
2024/01/08 05:45:29;;;;;;;;;;;18.60;68.70;;;;;;5055795;28;43076;-80
2024/01/08 05:47:55;;;;;;;;;;;18.60;69.20;;;;;;5062325;28;42949;-80
2024/01/08 05:50:25;;;;;;;;;;;18.60;69.10;;;;;;5062200;28;43969;-80
2024/01/08 05:52:51;;;;;;;;;;;18.60;69.10;;;;;;5062844;28;42932;-79
2024/01/08 05:55:17;;;;;;;;;;;18.60;68.90;;;;;;5062740;28;43089;-79
2024/01/08 05:57:42;;;;;;;;;;;18.60;68.90;;;;;;5060104;28;43047;-80
2024/01/08 06:00:08;;;;;;;;;;;18.60;68.10;;;;;;5057253;28;42971;-79
2024/01/08 06:02:34;;;;;;;;;;;18.60;68.70;;;;;;5061635;28;43304;-80
2024/01/08 06:04:59;;;;;;;;;;;18.60;68.40;;;;;;5062226;28;43700;-78
2024/01/08 06:07:25;;;;;;;;;;;18.60;69.10;;;;;;5062539;28;43051;-82
2024/01/08 06:09:50;;;;;;;;;;;18.60;68.60;;;;;;5046985;28;45210;-77
2024/01/08 06:12:16;;;;;;;;;;;18.60;68.70;;;;;;5041477;28;42957;-78
2024/01/08 06:14:41;;;;;;;;;;;18.60;68.60;;;;;;5061143;28;43214;-78
2024/01/08 06:17:07;;;;;;;;;;;18.60;67.90;;;;;;5061775;28;43070;-78
2024/01/08 06:19:33;;;;;;;;;;;18.60;68.30;;;;;;5065197;28;42962;-79
2024/01/08 06:21:59;;;;;;;;;;;18.60;67.90;;;;;;5066114;28;42895;-77
2024/01/08 06:24:24;;;;;;;;;;;18.70;68.60;;;;;;5065906;28;42990;-80
2024/01/08 06:26:50;;;;;;;;;;;18.60;68.00;;;;;;5065638;28;43103;-78
2024/01/08 06:29:16;;;;;;;;;;;18.70;68.70;;;;;;5064025;28;43003;-80
2024/01/08 06:31:42;;;;;;;;;;;18.70;68.90;;;;;;5064426;28;43377;-80
2024/01/08 06:34:08;;;;;;;;;;;18.70;68.40;;;;;;5063578;28;43021;-83
2024/01/08 06:36:38;;;;;;;;;;;18.70;69.10;;;;;;5066533;28;43172;-78
2024/01/08 06:39:04;;;;;;;;;;;18.70;69.20;;;;;;5055472;28;43351;-80
2024/01/08 06:41:30;;;;;;;;;;;18.70;69.10;;;;;;5063448;28;43192;-79
2024/01/08 06:43:56;;;;;;;;;;;18.70;69.50;;;;;;5055564;28;44004;-79
2024/01/08 06:46:21;;;;;;;;;;;18.70;69.50;;;;;;5066210;28;43002;-78
2024/01/08 06:48:47;;;;;;;;;;;18.70;68.90;;;;;;5065962;28;43710;-82
2024/01/08 06:51:12;;;;;;;;;;;18.80;69.50;;;;;;5065449;28;43026;-78
2024/01/08 06:53:38;;;;;;;;;;;18.70;69.60;;;;;;5065496;28;42919;-78
2024/01/08 06:56:04;;;;;;;;;;;18.70;69.60;;;;;;5066581;28;42918;-78
2024/01/08 06:58:29;;;;;;;;;;;18.80;69.90;;;;;;5066380;28;42927;-78
2024/01/08 07:00:55;;;;;;;;;;;18.70;69.70;;;;;;5066168;28;42991;-78
2024/01/08 07:03:20;;;;;;;;;;;18.80;69.90;;;;;;5066155;28;43592;-78
2024/01/08 07:05:47;;;;;;;;;;;18.80;70.00;;;;;;5065656;28;42996;-78
2024/01/08 07:08:12;;;;;;;;;;;18.80;70.10;;;;;;5065812;28;43001;-79
2024/01/08 07:10:38;;;;;;;;;;;18.80;70.20;;;;;;5064945;28;43138;-78
2024/01/08 07:13:03;;;;;;;;;;;18.80;70.20;;;;;;5065285;28;43287;-77
2024/01/08 07:15:43;;;;;;;;;;;18.80;70.20;;;;;;5065958;28;42882;-78
2024/01/08 07:18:09;;;;;;;;;;;18.80;69.60;;;;;;5065552;28;44925;-81
2024/01/08 07:20:36;;;;;;;;;;;18.80;70.30;;;;;;5064868;28;42925;-80
2024/01/08 07:23:02;;;;;;;;;;;18.80;70.10;;;;;;5065565;28;43379;-80
2024/01/08 07:25:27;;;;;;;;;;;18.80;70.30;;;;;;5052091;28;43005;-78
2024/01/08 07:27:53;;;;;;;;;;;18.70;69.60;;;;;;5065695;28;43563;-83
2024/01/08 07:30:20;;;;;;;;;;;18.80;70.40;;;;;;5064106;28;42879;-77
2024/01/08 07:32:47;;;;;;;;;;;18.80;69.70;;;;;;5044905;28;44558;-83
2024/01/08 07:35:13;;;;;;;;;;;18.80;70.40;;;;;;5065033;28;42939;-83
2024/01/08 07:37:39;;;;;;;;;;;18.80;69.80;;;;;;5047498;28;45786;-78
2024/01/08 07:40:04;;;;;;;;;;;18.70;70.20;;;;;;5053019;28;42930;-81
2024/01/08 07:42:31;;;;;;;;;;;18.80;70.30;;;;;;5065903;28;43747;-86
2024/01/08 07:44:56;;;;;;;;;;;18.80;70.40;;;;;;5065404;28;43008;-82
2024/01/08 07:47:22;;;;;;;;;;;18.80;69.90;;;;;;5070087;28;43399;-81
2024/01/08 07:49:48;;;;;;;;;;;18.80;70.60;;;;;;5068639;28;42928;-80
2024/01/08 07:52:13;;;;;;;;;;;18.80;70.00;;;;;;5061277;28;44079;-78
2024/01/08 07:54:39;;;;;;;;;;;18.80;70.90;;;;;;5064575;28;42951;-83
2024/01/08 07:57:04;;;;;;;;;;;18.90;71.00;;;;;;5064815;28;44226;-82
2024/01/08 07:59:30;;;;;;;;;;;18.90;70.20;;;;;;5064280;28;43171;-84
2024/01/08 08:01:56;;;;;;;;;;;18.90;70.80;;;;;;5055238;28;44902;-83
2024/01/08 08:04:21;;;;;;;;;;;18.90;70.30;;;;;;5064894;28;42894;-83
2024/01/08 08:06:47;;;;;;;;;;;18.90;71.00;;;;;;5064252;28;43556;-83
2024/01/08 08:09:12;;;;;;;;;;;18.90;71.00;;;;;;5064788;28;43056;-80
2024/01/08 08:11:39;;;;;;;;;;;19.40;71.40;;;;;;5065035;28;42914;-82
2024/01/08 08:14:04;;;;;;;;;;;18.90;71.00;;;;;;5065199;28;43128;-80
2024/01/08 08:16:30;;;;;;;;;;;18.90;71.10;;;;;;5065534;28;43495;-82
2024/01/08 08:18:56;;;;;;;;;;;18.90;71.00;;;;;;5065298;28;43206;-82
2024/01/08 08:21:21;;;;;;;;;;;18.90;71.10;;;;;;5064968;28;42984;-83
2024/01/08 08:23:47;;;;;;;;;;;18.90;71.10;;;;;;5063909;28;43014;-82
2024/01/08 08:26:14;;;;;;;;;;;18.90;71.20;;;;;;5063692;28;42977;-79
2024/01/08 08:28:40;;;;;;;;;;;18.90;71.10;;;;;;5064742;28;42989;-77
2024/01/08 08:31:06;;;;;;;;;;;18.90;71.20;;;;;;5064450;28;43618;-81
2024/01/08 08:33:31;;;;;;;;;;;18.90;71.20;;;;;;5064254;28;43694;-83
2024/01/08 08:35:57;;;;;;;;;;;18.30;70.30;;;;;;5063445;28;43350;-81
2024/01/08 08:38:22;;;;;;;;;;;18.90;70.70;;;;;;5061673;28;43124;-85
2024/01/08 08:40:48;;;;;;;;;;;19.00;71.30;;;;;;5063347;28;43087;-84
2024/01/08 08:43:13;;;;;;;;;;;18.90;70.70;;;;;;5062959;28;43090;-81
2024/01/08 08:45:39;;;;;;;;;;;19.00;71.60;;;;;;5050792;28;43307;-81
2024/01/08 08:48:04;;;;;;;;;;;18.90;63.80;;;;;;5049245;28;43003;-77
2024/01/08 08:50:30;;;;;;;;;;;18.80;58.00;;;;;;5063477;28;43384;-78
2024/01/08 08:52:55;;;;;;;;;;;18.60;55.40;;;;;;5055594;28;43091;-84
2024/01/08 08:55:21;;;;;;;;;;;18.40;54.30;;;;;;5037292;28;43422;-78
2024/01/08 08:57:47;;;;;;;;;;;18.30;59.50;;;;;;5063983;28;43004;-78
2024/01/08 09:00:12;;;;;;;;;;;18.20;60.60;;;;;;5063939;28;43032;-77
2024/01/08 09:02:41;;;;;;;;;;;18.30;62.50;;;;;;5059942;28;42978;-76
2024/01/08 09:05:07;;;;;;;;;;;18.40;62.60;;;;;;5057721;28;44216;-76
2024/01/08 09:07:33;;;;;;;;;;;18.60;63.10;;;;;;5063271;28;43026;-76
2024/01/08 09:09:59;;;;;;;;;;;18.50;63.00;;;;;;5062398;28;43032;-75
2024/01/08 09:12:26;;;;;;;;;;;18.50;63.90;;;;;;5062761;28;43090;-76
2024/01/08 09:14:52;;;;;;;;;;;18.60;63.30;;;;;;5062489;28;43624;-76
2024/01/08 09:17:18;;;;;;;;;;;18.60;64.00;;;;;;5054964;28;43038;-76
2024/01/08 09:19:43;;;;;;;;;;;18.60;64.10;;;;;;5056124;28;43645;-77
2024/01/08 09:22:09;;;;;;;;;;;18.70;63.70;;;;;;5056719;28;42978;-77
2024/01/08 09:24:35;;;;;;;;;;;18.70;64.30;;;;;;5058980;28;43773;-77
2024/01/08 09:27:00;;;;;;;;;;;18.70;64.50;;;;;;5052348;28;42998;-77
2024/01/08 09:29:26;;;;;;;;;;;18.80;64.70;;;;;;5055916;28;42883;-77
2024/01/08 09:31:53;;;;;;;;;;;18.80;64.70;;;;;;5052452;28;43268;-77
2024/01/08 09:34:18;;;;;;;;;;;18.70;64.20;;;;;;5055010;28;43130;-77
2024/01/08 09:36:44;;;;;;;;;;;18.80;64.90;;;;;;5054893;28;43116;-76
2024/01/08 09:39:11;;;;;;;;;;;18.80;65.00;;;;;;5058545;28;43527;-78
2024/01/08 09:41:37;;;;;;;;;;;18.90;65.10;;;;;;5056502;28;43427;-77
2024/01/08 09:44:05;;;;;;;;;;;18.80;65.10;;;;;;5042501;28;62246;-78
2024/01/08 09:46:33;;;;;;;;;;;18.90;65.20;;;;;;5057740;28;42974;-77
2024/01/08 09:49:00;;;;;;;;;;;18.80;64.80;;;;;;5062758;28;42990;-78
2024/01/08 09:51:25;;;;;;;;;;;18.90;65.40;;;;;;5063186;28;42962;-78
2024/01/08 09:53:52;;;;;;;;;;;18.90;65.50;;;;;;5066927;28;43843;-78
2024/01/08 09:56:20;;;;;;;;;;;18.90;65.50;;;;;;5066309;28;43125;-77
2024/01/08 09:58:45;;;;;;;;;;;18.90;65.60;;;;;;5066580;28;43057;-77
2024/01/08 10:01:11;;;;;;;;;;;18.90;65.60;;;;;;5066763;28;43111;-77
2024/01/08 10:03:36;;;;;;;;;;;18.90;65.80;;;;;;5066955;28;43521;-78
2024/01/08 10:06:09;;;;;;;;;;;18.90;65.20;;;;;;5066944;28;42980;-77
2024/01/08 10:08:35;;;;;;;;;;;18.90;65.70;;;;;;5065587;28;43142;-78
2024/01/08 10:11:01;;;;;;;;;;;19.00;65.80;;;;;;5065691;28;42911;-78
2024/01/08 10:13:27;;;;;;;;;;;19.00;65.40;;;;;;5067729;28;42875;-78
2024/01/08 10:15:52;;;;;;;;;;;19.00;66.00;;;;;;5071345;28;42977;-83
2024/01/08 10:18:18;;;;;;;;;;;19.00;65.30;;;;;;5039585;28;43688;-88
2024/01/08 10:20:46;;;;;;;;;;;19.10;65.90;;;;;;5066562;28;42934;-86
2024/01/08 10:23:16;;;;;;;;;;;19.10;65.90;;;;;;5047398;28;45102;-77
2024/01/08 10:25:48;;;;;;;;;;;19.10;66.00;;;;;;5066445;28;43219;-79
2024/01/08 10:28:16;;;;;;;;;;;19.10;65.40;;;;;;5071058;28;42946;-85
2024/01/08 10:30:41;;;;;;;;;;;19.10;66.00;;;;;;5068582;28;43143;-83
2024/01/08 10:33:07;;;;;;;;;;;19.00;65.40;;;;;;5070246;28;43035;-78
2024/01/08 10:35:34;;;;;;;;;;;19.10;66.20;;;;;;5067779;28;42865;-77
2024/01/08 10:38:00;;;;;;;;;;;19.10;66.20;;;;;;5065250;28;43055;-79
2024/01/08 10:40:27;;;;;;;;;;;19.10;66.30;;;;;;5063581;28;42974;-77
2024/01/08 10:42:52;;;;;;;;;;;19.10;66.30;;;;;;5079221;28;42899;-75
2024/01/08 10:45:18;;;;;;;;;;;19.00;65.80;;;;;;5071283;28;43111;-75
2024/01/08 10:47:49;;;;;;;;;;;19.00;66.40;;;;;;5067158;28;43674;-75
2024/01/08 10:50:16;;;;;;;;;;;19.10;66.00;;;;;;5077066;28;42832;-76
2024/01/08 10:52:48;;;;;;;;;;;19.10;66.50;;;;;;5079024;28;43019;-75
2024/01/08 10:55:15;;;;;;;;;;;19.10;66.50;;;;;;5052230;28;43083;-76
2024/01/08 10:57:40;;;;;;;;;;;19.10;66.60;;;;;;5080088;28;43254;-76
2024/01/08 11:00:09;;;;;;;;;;;19.10;66.70;;;;;;5083719;28;43066;-76
2024/01/08 11:02:38;;;;;;;;;;;19.10;66.70;;;;;;5059854;28;43047;-76
2024/01/08 11:05:05;;;;;;;;;;;19.20;66.40;;;;;;5063590;28;42954;-76
2024/01/08 11:07:36;;;;;;;;;;;19.10;66.70;;;;;;5054551;28;43256;-75
2024/01/08 11:10:03;;;;;;;;;;;19.20;66.60;;;;;;5081596;28;42933;-75
2024/01/08 11:12:29;;;;;;;;;;;19.20;66.80;;;;;;5058556;28;43784;-76
2024/01/08 11:15:01;;;;;;;;;;;19.20;66.40;;;;;;5066946;28;43411;-77
2024/01/08 11:17:28;;;;;;;;;;;19.10;66.30;;;;;;5042664;28;45443;-77
2024/01/08 11:19:55;;;;;;;;;;;19.20;67.00;;;;;;5068486;28;44197;-76
2024/01/08 11:22:20;;;;;;;;;;;19.20;67.00;;;;;;5056739;28;43584;-76
2024/01/08 11:24:49;;;;;;;;;;;19.20;67.00;;;;;;5055606;28;43353;-76
2024/01/08 11:27:21;;;;;;;;;;;19.00;66.90;;;;;;5048065;28;43680;-79
2024/01/08 11:29:58;;;;;;;;;;;19.20;66.50;;;;;;5055623;28;43131;-76
2024/01/08 11:32:33;;;;;;;;;;;19.20;66.50;;;;;;5049873;28;42977;-76
2024/01/08 11:35:10;;;;;;;;;;;19.20;66.50;;;;;;5048912;28;43022;-75
2024/01/08 11:37:40;;;;;;;;;;;19.20;66.50;;;;;;5064232;28;43465;-79
2024/01/08 11:40:16;;;;;;;;;;;19.20;66.60;;;;;;5056885;28;42835;-77
2024/01/08 11:42:42;;;;;;;;;;;19.20;66.70;;;;;;5044341;28;45417;-76
2024/01/08 11:45:08;;;;;;;;;;;19.20;66.70;;;;;;5059920;28;44002;-90
2024/01/08 11:47:34;;;;;;;;;;;19.20;66.70;;;;;;5057358;28;43089;-81
2024/01/08 11:50:00;;;;;;;;;;;19.20;67.50;;;;;;5054403;28;43805;-82
2024/01/08 11:52:27;;;;;;;;;;;19.20;66.50;;;;;;5060412;28;44385;-85
2024/01/08 11:54:55;;;;;;;;;;;19.20;66.60;;;;;;5060672;28;43365;-84
2024/01/08 11:57:22;;;;;;;;;;;19.20;67.40;;;;;;5060159;28;43017;-84
2024/01/08 11:59:47;;;;;;;;;;;19.10;67.50;;;;;;5060837;28;43018;-87
2024/01/08 12:02:14;;;;;;;;;;;19.20;67.00;;;;;;5052563;28;43342;-84
2024/01/08 12:04:40;;;;;;;;;;;19.20;66.70;;;;;;5053453;28;43030;-89
2024/01/08 12:07:09;;;;;;;;;;;19.20;66.70;;;;;;5048824;28;45367;-87
2024/01/08 12:09:34;;;;;;;;;;;19.20;66.70;;;;;;5053006;28;43118;-81
2024/01/08 12:12:04;;;;;;;;;;;19.20;65.90;;;;;;5053972;28;43766;-82
2024/01/08 12:14:30;;;;;;;;;;;19.20;67.00;;;;;;5058012;28;43009;-81
2024/01/08 12:16:56;;;;;;;;;;;19.10;66.60;;;;;;5052108;28;43360;-79
2024/01/08 12:19:21;;;;;;;;;;;19.30;67.60;;;;;;5057146;28;43216;-79
2024/01/08 12:21:47;;;;;;;;;;;19.20;66.70;;;;;;5062208;28;42942;-79
2024/01/08 12:24:12;;;;;;;;;;;19.20;67.20;;;;;;5062233;28;43021;-79
2024/01/08 12:26:38;;;;;;;;;;;19.20;66.50;;;;;;5063645;28;43646;-79
2024/01/08 12:29:03;;;;;;;;;;;19.20;67.20;;;;;;5063251;28;42982;-79
2024/01/08 12:31:32;;;;;;;;;;;19.20;67.20;;;;;;5064145;28;43087;-79
2024/01/08 12:33:58;;;;;;;;;;;19.20;66.50;;;;;;5063732;28;43088;-79
2024/01/08 12:36:24;;;;;;;;;;;19.20;67.10;;;;;;5063482;28;44267;-79
2024/01/08 12:38:49;;;;;;;;;;;19.20;66.60;;;;;;5057384;28;42954;-79
2024/01/08 12:41:15;;;;;;;;;;;19.20;67.30;;;;;;5062097;28;43954;-79
2024/01/08 12:43:41;;;;;;;;;;;19.20;67.30;;;;;;5052247;28;42948;-82
2024/01/08 12:46:07;;;;;;;;;;;19.20;66.70;;;;;;5056020;28;43055;-81
2024/01/08 12:48:32;;;;;;;;;;;19.20;67.60;;;;;;5062640;28;43022;-79
2024/01/08 12:50:58;;;;;;;;;;;19.20;66.70;;;;;;5058156;28;43523;-80
2024/01/08 12:53:23;;;;;;;;;;;19.20;67.50;;;;;;5057974;28;44528;-80
2024/01/08 12:55:49;;;;;;;;;;;19.20;66.90;;;;;;5056337;28;43550;-79
2024/01/08 12:58:14;;;;;;;;;;;19.20;67.50;;;;;;5059204;28;43165;-80
2024/01/08 13:00:40;;;;;;;;;;;19.20;68.80;;;;;;5054160;28;43784;-80
2024/01/08 13:03:05;;;;;;;;;;;19.10;68.90;;;;;;5053269;28;43222;-78
2024/01/08 13:05:31;;;;;;;;;;;19.30;68.90;;;;;;5060554;28;43487;-80
2024/01/08 13:07:56;;;;;;;;;;;19.20;69.10;;;;;;5060218;28;43230;-79
2024/01/08 13:10:24;;;;;;;;;;;19.20;68.60;;;;;;5055109;28;44089;-79
2024/01/08 13:12:49;;;;;;;;;;;19.30;69.60;;;;;;5037772;28;43941;-79
2024/01/08 13:15:15;;;;;;;;;;;19.30;70.00;;;;;;5055016;28;45454;-78
2024/01/08 13:17:40;;;;;;;;;;;19.20;70.20;;;;;;5062180;28;43034;-78
2024/01/08 13:20:08;;;;;;;;;;;19.30;69.80;;;;;;5062676;28;43500;-77
2024/01/08 13:22:33;;;;;;;;;;;19.30;69.90;;;;;;5060769;28;43094;-79
2024/01/08 13:25:00;;;;;;;;;;;19.30;69.80;;;;;;5058337;28;43685;-78
2024/01/08 13:27:26;;;;;;;;;;;19.30;69.70;;;;;;5064543;28;43002;-80
2024/01/08 13:29:51;;;;;;;;;;;19.30;70.30;;;;;;5066444;28;43977;-80
2024/01/08 13:32:19;;;;;;;;;;;19.30;69.70;;;;;;5067593;28;43162;-80
2024/01/08 13:34:47;;;;;;;;;;;19.30;70.20;;;;;;5060093;28;43105;-80
2024/01/08 13:37:13;;;;;;;;;;;19.30;70.20;;;;;;5063014;28;43060;-80
2024/01/08 13:39:39;;;;;;;;;;;19.30;69.60;;;;;;5054743;28;43025;-80
2024/01/08 13:42:06;;;;;;;;;;;19.30;69.70;;;;;;5065523;28;42945;-79
2024/01/08 13:44:31;;;;;;;;;;;19.40;70.40;;;;;;5046720;28;43144;-80
2024/01/08 13:46:57;;;;;;;;;;;19.30;70.30;;;;;;5061956;28;42904;-79
2024/01/08 13:49:22;;;;;;;;;;;19.30;70.20;;;;;;5047717;28;43947;-79
2024/01/08 13:51:48;;;;;;;;;;;19.30;70.30;;;;;;5066483;28;42961;-80
2024/01/08 13:54:14;;;;;;;;;;;19.30;70.30;;;;;;5066077;28;43073;-80
2024/01/08 13:56:41;;;;;;;;;;;19.30;70.40;;;;;;5065550;28;43317;-80
2024/01/08 13:59:07;;;;;;;;;;;19.30;69.70;;;;;;5050522;28;42962;-78
2024/01/08 14:01:32;;;;;;;;;;;19.30;70.30;;;;;;5064962;28;43106;-78
2024/01/08 14:03:58;;;;;;;;;;;19.20;70.30;;;;;;5065130;28;43525;-78
2024/01/08 14:06:23;;;;;;;;;;;19.30;70.40;;;;;;5060224;28;43110;-78
2024/01/08 14:08:49;;;;;;;;;;;19.30;70.30;;;;;;5061582;28;43932;-80